Terminal Aerodrome Forecast
Issued by NWS Bismarck, ND

Home | Current Version | Previous Version | Text Only | Print | Product List | Glossary On
Versions: 1 2 3 4 5 6 7 8 9 10 11 12 13 14 15 16 17 18 19 20 21 22
000
FTUS43 KBIS 231700
TAFBIS
TAF
KBIS 231734Z 2318/2418 05013KT P6SM -SHRA BKN008 OVC015
      TEMPO 2318/2322 P6SM NSW SCT008 OVC015
     FM240000 07015KT 5SM -SHRA OVC006
     FM240500 15010KT P6SM VCSH OVC009
     FM241500 25012KT P6SM OVC015=

USA.gov is the U.S. government's official web portal to all federal, state and local government web resources and services.